Astoria Regional Airport Astoria US
ICAO: KAST
IATA: AST
Category: Medium
Scheduled Services: No

Elevation: 15 ft
TransAlt. 18000 ft.

Airport Communications:
ASOS:135.375
SEATTLE CNTR:124.2
AIR CG:38.18
MC MINNVILLE RDO:122.3
CTAF/UNICOM:122.8

KAST Zoom In..

Runways:

(A) RW 08 length 5795 ft width 100 ft
---- / hdg 77

(B) RW 13 length 4996 ft width 100 ft
---- / hdg 135

(C) RW 26 length 5795 ft width 100 ft
ILS 109.50 / hdg 257

(D) RW 31 length 4996 ft width 100 ft
---- / hdg 315

Location; KAST
Day. 09 / Time. 00.55 Zulu
* Altimeter: 30.24
* Temperature: 18° c. 64.4°f.
* Wind from: 320° Speed 14 kn.
Dewpoint: 12° c.
Visibility: 10 Statute Miles.
Clouds: Clear (automated report).

KAST 090055Z AUTO 32014KT 10SM CLR 18/12 A3024 RMK AO2 SLP239 T01830117

Going to: --> -->


Wind From 320°
Speed 14 kn.

 
 
jpsmedia worldairports.se 2020   terms of use